Swain, NY (14884)

4:30 AM EDT on September 01, 2015 (GMT -0400)
Swain | | Change Station
CLOSE
Current Station
Personal Weather Station
Location: Swain, NY
Elevation: 1706 ft
Nearby Weather Stations

Elev 1706 ft 42.48 °N, 77.86 °W | Updated 24 seconds ago

Partly Cloudy
Partly Cloudy
64.0 °F
Feels Like 64.0 °F
N
0.0
Wind Variable Wind from West
Gusts 3.0 mph

Today
High -- | Low -- °F
--% Chance of Precip.
Yesterday
High -- | Low -- °F
Precip. -- in
6:36 AM 7:46 PM
Waning Gibbous, 90% visible
Pressure 30.08 in
Visibility 7.0 miles
Clouds Mostly Cloudy 2000 ft
Dew Point 64 °F
Humidity 99%
Rainfall 0.00 in
Snow Depth Not available.
UV 0 out of 12
Pollen 10.80 out of 12
Air Quality Not available.
Flu Activity Not available.
SPECI KDSV 010809Z AUTO 13005KT 7SM BKN020 18/17 A3008 RMK AO2 T01780167
Pressure 30.08 in
Visibility 7.0 miles
Clouds Mostly Cloudy 2000 ft
Dew Point 64 °F
Humidity 99%
Rainfall 0.00 in
Snow Depth Not available.
UV 0 out of 12
Pollen 10.80 out of 12
Air Quality Not available.
Flu Activity Not available.
SPECI KDSV 010809Z AUTO 13005KT 7SM BKN020 18/17 A3008 RMK AO2 T01780167

10-Day Weather Forecast

×

Almanac

Astronomy

Sep. 01, 2015 Rise Set
Actual Time
Civil Twilight
Nautical Twilight
Astronomical Twilight
Moon
Length of Visible Light
Length of Day
Tomorrow will be .
, % of the Moon is Illuminated

Today's Extremes

State Highs State Lows

Community

WunderPhotos

Upload Photos

1,851,490 photos uploaded!

WunderBlogs® & News

Nearby

Air Quality

  Air Quality AQ Index Pollutant
Not available.

Snow Depth

Station Depth Elevation

Earthquake Activity

City Distance Mag. Time & Date
Minimum magnitude displayed is 2.5.

Coastal Water Temperatures

Place Temperature

Stations

Nearby Weather Stations

Station Location Temp. Windchill Dew Point Humidity Wind Precip. Elev Updated Type